Terminal Aerodrome Forecast
Issued by NWS Upton, NY

Home | Current Version | Previous Version | Text Only | Print | Product List | Glossary On
Versions: 1 2 3 4 5 6 7 8 9 10 11 12 13 14 15 16 17 18 19 20 21 22 23 24 25 26 27 28 29 30 31 32
989
FTUS41 KOKX 232038 AAB
TAFBDR
TAF AMD
KBDR 232038Z 2321/2418 20006KT P6SM SCT010
     FM240300 VRB02KT 3SM BR BKN008
     FM240700 VRB03KT 1/4SM FG OVC002
     FM241500 20009KT 3SM BR OVC007
     FM241700 19008KT 6SM BR BKN010=

USA.gov is the U.S. government's official web portal to all federal, state and local government web resources and services.